Terminal Aerodrome Forecast
Issued by NWS Shreveport, LA

Home | Current Version | Previous Version | Text Only | Print | Product List | Glossary On
Versions: 1 2 3 4 5 6 7 8 9 10 11 12 13 14 15 16
000
FTUS44 KSHV 261143
TAFTYR
TAF
KTYR 261143Z 2612/2712 19012KT P6SM VCSH SCT015 SCT025 OVC035
      TEMPO 2612/2615 -SHRA BKN015 OVC025
     FM261500 22017G27KT 6SM SHRA VCTS OVC020CB
      TEMPO 2616/2620 VRB20G40KT 1SM +TSRA BR OVC015CB
     FM262200 32014G24KT P6SM BKN030
     FM270000 32012KT P6SM SCT035
     FM270300 30004KT P6SM SKC=

USA.gov is the U.S. government's official web portal to all federal, state and local government web resources and services.